Time;durP1;ratioP1;P1;durP2;ratioP2;P2;SDS_P1;SDS_P2;PMS_P1;PMS_P2;Temp;Humidity;BMP_temperature;BMP_pressure;BME280_temperature;BME280_humidity;BME280_pressure;Samples;Min_cycle;Max_cycle;Signal;HPM_P1;HPM_P2
2021/04/24 00:00:35;;;;;;;2.95;1.55;;;23.20;28.20;;;;;;5030884;28;20712;-59
2021/04/24 00:03:02;;;;;;;1.85;1.52;;;23.10;28.10;;;;;;5031506;28;20198;-58
2021/04/24 00:05:28;;;;;;;2.40;1.30;;;23.20;28.20;;;;;;5032054;28;20198;-58
2021/04/24 00:07:54;;;;;;;1.70;1.30;;;23.20;28.20;;;;;;5030080;28;20249;-59
2021/04/24 00:10:20;;;;;;;2.35;1.50;;;23.20;28.20;;;;;;5031274;28;20207;-58
2021/04/24 00:12:46;;;;;;;1.77;1.55;;;23.10;28.10;;;;;;5030954;28;20213;-59
2021/04/24 00:15:12;;;;;;;2.53;1.30;;;23.10;28.10;;;;;;5031674;28;20615;-59
2021/04/24 00:17:38;;;;;;;2.85;1.90;;;23.20;28.20;;;;;;5030448;28;20203;-59
2021/04/24 00:20:04;;;;;;;2.28;1.50;;;23.20;28.20;;;;;;5031179;28;20217;-59
2021/04/24 00:22:31;;;;;;;1.98;1.58;;;23.20;28.20;;;;;;5029510;28;20245;-59
2021/04/24 00:24:57;;;;;;;1.42;1.30;;;23.20;28.20;;;;;;5031370;28;20234;-59
2021/04/24 00:27:23;;;;;;;2.10;1.38;;;23.20;28.20;;;;;;5024898;28;20268;-59
2021/04/24 00:29:49;;;;;;;1.65;1.55;;;23.20;28.20;;;;;;5030712;28;20210;-59
2021/04/24 00:32:14;;;;;;;2.38;1.77;;;23.20;28.20;;;;;;5030837;28;20223;-59
2021/04/24 00:34:40;;;;;;;1.60;1.50;;;23.20;28.20;;;;;;5031033;28;20576;-59
2021/04/24 00:37:07;;;;;;;1.77;1.38;;;23.20;28.20;;;;;;5029430;28;20214;-59
2021/04/24 00:39:32;;;;;;;1.40;1.30;;;23.20;28.20;;;;;;5029509;28;20233;-59
2021/04/24 00:41:58;;;;;;;2.45;1.27;;;23.20;28.20;;;;;;5028913;28;20229;-59
2021/04/24 00:44:24;;;;;;;3.03;1.23;;;23.20;28.20;;;;;;5030296;28;20253;-59
2021/04/24 00:46:50;;;;;;;2.50;1.40;;;23.20;28.20;;;;;;5029306;28;20202;-59
2021/04/24 00:49:16;;;;;;;1.85;1.58;;;23.20;28.20;;;;;;5030227;28;20210;-59
2021/04/24 00:51:42;;;;;;;1.65;1.20;;;23.10;28.10;;;;;;5029969;28;20218;-59
2021/04/24 00:54:08;;;;;;;1.83;1.50;;;23.10;28.10;;;;;;5030275;28;20230;-59
2021/04/24 00:56:34;;;;;;;1.90;1.73;;;23.10;28.10;;;;;;5031017;28;20198;-58
2021/04/24 00:59:00;;;;;;;1.90;1.45;;;23.10;28.10;;;;;;5029143;28;20201;-59
2021/04/24 01:01:26;;;;;;;1.73;1.27;;;23.20;28.20;;;;;;5031261;28;20226;-59
2021/04/24 01:03:52;;;;;;;1.40;1.30;;;23.20;28.20;;;;;;5029929;28;20559;-59
2021/04/24 01:06:18;;;;;;;1.40;1.30;;;23.10;28.10;;;;;;5030849;28;20206;-60
2021/04/24 01:08:44;;;;;;;2.17;1.40;;;23.10;28.10;;;;;;5029607;28;21995;-59
2021/04/24 01:11:10;;;;;;;1.50;1.40;;;23.10;28.10;;;;;;5030892;28;20201;-61
2021/04/24 01:13:36;;;;;;;2.00;1.38;;;23.10;28.10;;;;;;5029696;28;20234;-59
2021/04/24 01:16:02;;;;;;;1.88;1.30;;;23.10;28.10;;;;;;5030959;28;20268;-59
2021/04/24 01:18:28;;;;;;;1.63;1.38;;;23.10;28.10;;;;;;5029444;28;20210;-59
2021/04/24 01:20:54;;;;;;;1.52;1.40;;;23.10;28.10;;;;;;5030822;28;20589;-59
2021/04/24 01:23:20;;;;;;;1.60;1.40;;;23.10;28.10;;;;;;5029549;28;20214;-58
2021/04/24 01:25:46;;;;;;;1.87;1.47;;;23.10;28.10;;;;;;5030648;28;20643;-58
2021/04/24 01:28:12;;;;;;;1.53;1.43;;;23.10;28.10;;;;;;5029446;28;20229;-59
2021/04/24 01:30:38;;;;;;;1.75;1.40;;;23.10;28.10;;;;;;5030001;28;20213;-59
2021/04/24 01:33:05;;;;;;;1.38;1.27;;;23.10;28.10;;;;;;5028744;28;20599;-60
2021/04/24 01:35:31;;;;;;;2.37;1.40;;;23.10;28.10;;;;;;5030275;28;20271;-60
2021/04/24 01:37:57;;;;;;;1.33;1.23;;;23.10;28.10;;;;;;5029658;28;20229;-59
2021/04/24 01:40:23;;;;;;;1.45;1.20;;;23.10;28.10;;;;;;5028497;28;20225;-57
2021/04/24 01:42:49;;;;;;;1.40;1.30;;;23.10;28.10;;;;;;5029711;28;20261;-58
2021/04/24 01:45:15;;;;;;;1.40;1.30;;;23.10;28.10;;;;;;5029909;28;20210;-57
2021/04/24 01:47:41;;;;;;;1.60;1.50;;;23.10;28.10;;;;;;5028574;28;20202;-58
2021/04/24 01:50:07;;;;;;;1.40;1.30;;;23.10;28.10;;;;;;5029630;28;20209;-58
2021/04/24 01:52:33;;;;;;;1.60;1.50;;;23.20;28.20;;;;;;5030686;28;20218;-58
2021/04/24 01:54:59;;;;;;;1.43;1.33;;;23.10;28.10;;;;;;5028965;28;20324;-59
2021/04/24 01:57:25;;;;;;;1.20;1.10;;;23.10;28.10;;;;;;5018942;28;20214;-58
2021/04/24 01:59:51;;;;;;;1.50;1.30;;;23.10;28.10;;;;;;5029709;28;20290;-58
2021/04/24 02:02:17;;;;;;;2.30;1.60;;;23.10;28.10;;;;;;5032662;28;20241;-58
2021/04/24 02:04:43;;;;;;;1.50;1.40;;;23.10;28.10;;;;;;5033295;28;20222;-58
2021/04/24 02:07:09;;;;;;;2.78;1.25;;;23.10;28.70;;;;;;5032572;28;20654;-58
2021/04/24 02:09:35;;;;;;;1.52;1.40;;;23.10;28.10;;;;;;5040764;28;20291;-58
2021/04/24 02:12:01;;;;;;;1.40;1.25;;;23.10;28.10;;;;;;5033328;28;20233;-58
2021/04/24 02:14:27;;;;;;;1.55;1.45;;;23.10;28.10;;;;;;5033065;28;20253;-59
2021/04/24 02:16:53;;;;;;;1.50;1.40;;;23.10;28.10;;;;;;5032881;28;20209;-59
2021/04/24 02:19:19;;;;;;;1.35;1.25;;;23.10;28.30;;;;;;5032663;28;20655;-59
2021/04/24 02:21:45;;;;;;;1.63;1.35;;;23.10;28.10;;;;;;5033062;28;20226;-58
2021/04/24 02:24:11;;;;;;;2.35;1.40;;;23.10;28.10;;;;;;5032992;28;20233;-58
2021/04/24 02:26:37;;;;;;;1.42;1.33;;;23.10;28.10;;;;;;5050955;28;20214;-59
2021/04/24 02:29:03;;;;;;;1.73;1.60;;;23.10;28.10;;;;;;5031527;28;20199;-58
2021/04/24 02:31:29;;;;;;;2.10;1.30;;;23.10;28.10;;;;;;5033345;28;20539;-59
2021/04/24 02:33:55;;;;;;;1.97;1.13;;;23.10;28.10;;;;;;5032355;28;20230;-59
2021/04/24 02:36:21;;;;;;;1.42;1.30;;;23.10;28.10;;;;;;5033578;28;20535;-60
2021/04/24 02:38:47;;;;;;;1.83;1.42;;;23.10;28.10;;;;;;5031613;28;20206;-59
2021/04/24 02:41:13;;;;;;;1.10;1.10;;;23.10;28.10;;;;;;5032773;28;20272;-59
2021/04/24 02:43:39;;;;;;;1.33;1.20;;;23.10;28.10;;;;;;5039558;28;20610;-58
2021/04/24 02:46:05;;;;;;;1.23;1.13;;;23.10;28.10;;;;;;5031329;28;20213;-58
2021/04/24 02:48:31;;;;;;;1.50;1.40;;;23.10;28.10;;;;;;5031588;28;20205;-58
2021/04/24 02:50:57;;;;;;;1.38;1.27;;;23.10;28.10;;;;;;5031337;28;20218;-58
2021/04/24 02:53:23;;;;;;;1.90;1.30;;;23.10;28.10;;;;;;5032726;28;20724;-58
2021/04/24 02:55:49;;;;;;;1.55;1.40;;;23.10;28.10;;;;;;5032029;28;20207;-58
2021/04/24 02:58:15;;;;;;;1.30;1.20;;;23.10;28.10;;;;;;5033662;28;20210;-59
2021/04/24 03:00:41;;;;;;;1.58;1.23;;;23.10;28.10;;;;;;5029162;28;20581;-59
2021/04/24 03:03:06;;;;;;;1.80;1.47;;;23.10;28.10;;;;;;5033123;28;20233;-58
2021/04/24 03:05:32;;;;;;;1.60;1.50;;;23.10;28.10;;;;;;5031983;28;20202;-58
2021/04/24 03:07:58;;;;;;;1.60;1.50;;;23.10;28.20;;;;;;5032057;28;20202;-59
2021/04/24 03:10:24;;;;;;;2.15;1.50;;;23.10;28.10;;;;;;5031419;28;20206;-58
2021/04/24 03:12:50;;;;;;;1.80;1.70;;;23.10;28.20;;;;;;5031728;28;20215;-58
2021/04/24 03:15:16;;;;;;;1.35;1.25;;;23.10;28.20;;;;;;5031658;28;20202;-57
2021/04/24 03:17:42;;;;;;;1.98;1.42;;;23.10;28.30;;;;;;5032305;28;20198;-57
2021/04/24 03:20:08;;;;;;;1.55;1.45;;;23.10;28.30;;;;;;5031424;28;20209;-58
2021/04/24 03:22:34;;;;;;;1.63;1.03;;;23.10;28.30;;;;;;5032300;28;20230;-57
2021/04/24 03:25:00;;;;;;;1.77;1.50;;;23.10;28.30;;;;;;5031505;28;20627;-58
2021/04/24 03:27:26;;;;;;;1.30;1.20;;;23.10;28.30;;;;;;5032299;28;20206;-59
2021/04/24 03:29:52;;;;;;;1.13;1.10;;;23.10;28.30;;;;;;5031655;28;20198;-58
2021/04/24 03:32:18;;;;;;;2.23;1.30;;;23.10;28.30;;;;;;5032660;28;20722;-58
2021/04/24 03:34:44;;;;;;;1.50;1.30;;;23.10;28.30;;;;;;5030594;28;20202;-58
2021/04/24 03:37:10;;;;;;;1.30;1.20;;;23.10;28.40;;;;;;5030729;28;20637;-58
2021/04/24 03:39:36;;;;;;;1.60;1.50;;;23.10;28.40;;;;;;5031209;28;20237;-58
2021/04/24 03:42:02;;;;;;;1.50;1.40;;;23.10;28.40;;;;;;5032309;28;20234;-58
2021/04/24 03:44:28;;;;;;;1.30;1.20;;;23.10;28.40;;;;;;5030306;28;20590;-58
2021/04/24 03:46:54;;;;;;;1.50;1.40;;;23.10;28.40;;;;;;5029793;28;20202;-58
2021/04/24 03:49:20;;;;;;;1.40;1.30;;;23.10;28.50;;;;;;5032002;28;20206;-58
2021/04/24 03:51:46;;;;;;;1.90;1.60;;;23.10;28.40;;;;;;5030659;28;20214;-58
2021/04/24 03:54:12;;;;;;;1.67;1.50;;;23.10;28.40;;;;;;5030462;28;20225;-58
2021/04/24 03:56:38;;;;;;;1.50;1.40;;;23.10;28.50;;;;;;5032195;28;20245;-58
2021/04/24 03:59:04;;;;;;;1.70;1.47;;;23.10;28.50;;;;;;5019043;28;20682;-58
2021/04/24 04:01:30;;;;;;;1.73;1.30;;;23.10;28.40;;;;;;5031440;28;20241;-58
2021/04/24 04:03:56;;;;;;;1.60;1.50;;;23.10;28.40;;;;;;5031493;28;20220;-58
2021/04/24 04:06:22;;;;;;;1.50;1.40;;;23.10;28.40;;;;;;5031300;28;20209;-58
2021/04/24 04:08:48;;;;;;;1.30;1.20;;;23.10;28.50;;;;;;5031177;28;20561;-58
2021/04/24 04:11:14;;;;;;;1.38;1.27;;;23.10;28.50;;;;;;5030913;28;20206;-58
2021/04/24 04:13:40;;;;;;;2.00;1.33;;;23.10;28.40;;;;;;5031009;28;20231;-58
2021/04/24 04:16:06;;;;;;;1.70;1.43;;;23.10;28.50;;;;;;5030120;28;20214;-58
2021/04/24 04:18:35;;;;;;;1.40;1.30;;;23.10;28.50;;;;;;5030922;28;20549;-58
2021/04/24 04:21:01;;;;;;;1.70;1.40;;;23.10;28.50;;;;;;5030303;28;20735;-58
2021/04/24 04:23:27;;;;;;;3.17;1.20;;;23.10;28.50;;;;;;5031313;28;20221;-58
2021/04/24 04:25:53;;;;;;;1.98;1.30;;;23.10;28.50;;;;;;5030070;28;20538;-58
2021/04/24 04:28:19;;;;;;;1.85;1.55;;;23.10;28.50;;;;;;5030763;28;20264;-58
2021/04/24 04:30:45;;;;;;;1.33;1.23;;;23.10;28.50;;;;;;5029459;28;20221;-57
2021/04/24 04:33:11;;;;;;;1.47;1.37;;;23.10;28.50;;;;;;5031318;28;20218;-57
2021/04/24 04:35:37;;;;;;;1.20;1.10;;;23.10;28.50;;;;;;5029581;28;20209;-58
2021/04/24 04:38:03;;;;;;;2.20;1.33;;;23.10;28.50;;;;;;5030742;28;20670;-58
2021/04/24 04:40:29;;;;;;;1.98;1.30;;;23.10;28.50;;;;;;5029709;28;20233;-61
2021/04/24 04:42:55;;;;;;;1.50;1.40;;;23.10;28.50;;;;;;5030098;28;20237;-61
2021/04/24 04:45:21;;;;;;;2.55;1.60;;;23.10;28.70;;;;;;5029305;28;20202;-58
2021/04/24 04:47:47;;;;;;;1.40;1.30;;;23.10;28.80;;;;;;5030519;28;20542;-61
2021/04/24 04:50:13;;;;;;;2.55;1.75;;;23.10;28.80;;;;;;5029434;28;20202;-61
2021/04/24 04:52:39;;;;;;;1.27;1.20;;;23.10;28.90;;;;;;5031010;28;20645;-61
2021/04/24 04:55:05;;;;;;;1.47;1.37;;;23.10;28.70;;;;;;5030188;28;20210;-62
2021/04/24 04:57:31;;;;;;;2.30;1.60;;;23.10;28.60;;;;;;5033138;28;20569;-61
2021/04/24 04:59:57;;;;;;;1.40;1.30;;;23.10;28.60;;;;;;5039652;28;20202;-61
2021/04/24 05:02:23;;;;;;;2.03;1.40;;;23.10;28.60;;;;;;5030448;28;20226;-61
2021/04/24 05:04:49;;;;;;;1.33;1.05;;;23.10;28.60;;;;;;5028273;28;20198;-60
2021/04/24 05:07:15;;;;;;;1.52;1.42;;;23.10;28.60;;;;;;5030496;28;20210;-61
2021/04/24 05:09:40;;;;;;;1.55;1.35;;;23.10;28.60;;;;;;5029646;28;20593;-60
2021/04/24 05:12:07;;;;;;;2.83;1.63;;;23.10;28.60;;;;;;5030409;28;20301;-61
2021/04/24 05:14:32;;;;;;;1.45;1.35;;;23.10;28.60;;;;;;5032440;28;20221;-61
2021/04/24 05:16:58;;;;;;;1.40;1.30;;;23.10;28.60;;;;;;5030810;28;20654;-62
2021/04/24 05:19:24;;;;;;;3.00;1.55;;;23.10;28.50;;;;;;5029200;28;20209;-60
2021/04/24 05:21:50;;;;;;;1.50;1.40;;;23.20;29.30;;;;;;5030566;28;20218;-61
2021/04/24 05:24:16;;;;;;;1.50;1.40;;;23.20;28.70;;;;;;5028776;28;20580;-68
2021/04/24 05:26:42;;;;;;;1.52;1.42;;;23.20;28.70;;;;;;5030385;28;20217;-61
2021/04/24 05:29:08;;;;;;;1.38;1.25;;;23.20;28.70;;;;;;5029186;28;20716;-61
2021/04/24 05:31:34;;;;;;;1.75;1.25;;;23.20;28.70;;;;;;5029911;28;20214;-61
2021/04/24 05:34:00;;;;;;;1.42;1.33;;;23.10;28.70;;;;;;5025728;28;20306;-60
2021/04/24 05:36:26;;;;;;;1.87;1.47;;;23.10;28.80;;;;;;5029604;28;20581;-61
2021/04/24 05:38:52;;;;;;;5.72;1.75;;;23.20;28.90;;;;;;5030761;28;20214;-61
2021/04/24 05:41:21;;;;;;;2.90;1.65;;;23.20;29.30;;;;;;5030502;28;20222;-61
2021/04/24 05:43:47;;;;;;;2.00;1.55;;;23.20;29.40;;;;;;5024163;28;20711;-62
2021/04/24 05:46:13;;;;;;;3.50;1.67;;;23.20;29.50;;;;;;5033146;28;20209;-61
2021/04/24 05:48:39;;;;;;;3.50;1.80;;;23.10;29.60;;;;;;5031562;28;20535;-62
2021/04/24 05:51:05;;;;;;;3.00;1.67;;;23.10;29.60;;;;;;5031704;28;20218;-61
2021/04/24 05:53:31;;;;;;;3.67;1.55;;;23.10;29.80;;;;;;5026470;28;20634;-61
2021/04/24 05:55:57;;;;;;;4.22;1.55;;;23.10;29.90;;;;;;5028136;28;20317;-61
2021/04/24 05:58:23;;;;;;;4.78;1.67;;;23.10;29.90;;;;;;5021082;28;20218;-62
2021/04/24 06:00:49;;;;;;;2.38;1.60;;;23.10;30.00;;;;;;5025387;28;20244;-61
2021/04/24 06:03:15;;;;;;;5.70;2.00;;;23.10;29.90;;;;;;5033752;28;20277;-61
2021/04/24 06:05:41;;;;;;;2.92;1.42;;;23.10;29.90;;;;;;5037232;28;20201;-62
2021/04/24 06:08:07;;;;;;;2.15;1.60;;;23.10;29.90;;;;;;5050976;28;20205;-61
2021/04/24 06:10:33;;;;;;;3.05;1.50;;;23.10;29.90;;;;;;5020404;28;20211;-62
2021/04/24 06:12:59;;;;;;;2.20;1.40;;;23.10;29.90;;;;;;5021098;28;20280;-62
2021/04/24 06:15:25;;;;;;;5.03;1.60;;;23.10;29.80;;;;;;5032802;28;20203;-62
2021/04/24 06:17:51;;;;;;;2.65;1.63;;;23.10;29.90;;;;;;5032830;28;20209;-62
2021/04/24 06:20:17;;;;;;;2.65;1.67;;;23.10;29.80;;;;;;5033830;28;20213;-62
2021/04/24 06:22:42;;;;;;;4.93;2.03;;;23.10;29.90;;;;;;5036450;28;20225;-62
2021/04/24 06:25:08;;;;;;;2.70;2.07;;;23.20;30.20;;;;;;5035502;28;20619;-62
2021/04/24 06:27:35;;;;;;;3.60;1.60;;;23.20;29.90;;;;;;5033199;28;20206;-62
2021/04/24 06:30:00;;;;;;;2.80;1.80;;;23.10;29.70;;;;;;5033361;28;20240;-62
2021/04/24 06:32:26;;;;;;;2.53;1.55;;;23.10;29.70;;;;;;5028210;28;20277;-61
2021/04/24 06:34:52;;;;;;;2.45;1.50;;;23.10;29.70;;;;;;5031294;28;20206;-61
2021/04/24 06:37:18;;;;;;;3.85;1.60;;;23.20;29.90;;;;;;5031954;28;20253;-61
2021/04/24 06:39:44;;;;;;;2.53;1.65;;;23.20;29.60;;;;;;5035331;28;20267;-61
2021/04/24 06:42:10;;;;;;;6.90;2.30;;;23.20;29.60;;;;;;5030886;28;20241;-61
2021/04/24 06:44:36;;;;;;;4.45;1.67;;;23.20;29.90;;;;;;5028290;28;20217;-58
2021/04/24 06:47:02;;;;;;;2.80;1.77;;;23.20;29.80;;;;;;5031788;28;20258;-61
2021/04/24 06:49:28;;;;;;;2.40;1.20;;;23.20;29.70;;;;;;5032574;28;20580;-67
2021/04/24 06:51:54;;;;;;;3.72;1.63;;;23.20;29.80;;;;;;5030566;28;20627;-62
2021/04/24 06:54:20;;;;;;;5.47;1.73;;;23.20;30.10;;;;;;5033045;28;20256;-63
2021/04/24 06:56:46;;;;;;;3.80;1.77;;;23.20;30.20;;;;;;5033317;28;20213;-61
2021/04/24 06:59:12;;;;;;;5.97;1.60;;;23.20;30.40;;;;;;5031116;28;20209;-64
2021/04/24 07:01:38;;;;;;;4.07;2.15;;;23.20;30.00;;;;;;5031127;28;20634;-59
2021/04/24 07:04:04;;;;;;;4.60;1.65;;;23.20;30.20;;;;;;5029237;28;20210;-63
2021/04/24 07:06:30;;;;;;;4.73;2.17;;;23.20;31.10;;;;;;5012421;28;20567;-61
2021/04/24 07:08:56;;;;;;;5.07;2.38;;;23.20;31.50;;;;;;5026724;28;20209;-63
2021/04/24 07:11:22;;;;;;;5.40;2.05;;;23.10;31.90;;;;;;5031895;28;20210;-61
2021/04/24 07:13:48;;;;;;;3.05;1.85;;;23.10;32.00;;;;;;5032018;28;20205;-64
2021/04/24 07:16:14;;;;;;;3.00;1.88;;;23.10;32.00;;;;;;5032563;28;20201;-65
2021/04/24 07:18:40;;;;;;;6.63;2.13;;;23.10;31.60;;;;;;5030815;28;20198;-61
2021/04/24 07:21:06;;;;;;;7.82;3.28;;;23.20;31.70;;;;;;5031502;28;20590;-50
2021/04/24 07:23:32;;;;;;;8.10;4.00;;;23.00;29.30;;;;;;5031476;28;20229;-55
2021/04/24 07:25:58;;;;;;;6.70;4.32;;;22.20;24.70;;;;;;5031930;28;20267;-53
2021/04/24 07:28:24;;;;;;;6.60;4.47;;;21.50;26.40;;;;;;5032199;28;20222;-51
2021/04/24 07:30:50;;;;;;;5.53;4.20;;;21.40;26.90;;;;;;5031949;28;20209;-52
2021/04/24 07:33:16;;;;;;;7.57;4.33;;;21.30;26.40;;;;;;5031172;28;20268;-56
2021/04/24 07:35:42;;;;;;;8.83;5.20;;;21.40;25.20;;;;;;5031402;28;20205;-49
2021/04/24 07:38:08;;;;;;;8.03;5.70;;;21.20;24.90;;;;;;5030298;28;20200;-51
2021/04/24 07:40:34;;;;;;;8.30;4.73;;;19.90;21.70;;;;;;5028051;28;20208;-54
2021/04/24 07:43:00;;;;;;;7.10;4.37;;;19.70;23.10;;;;;;5028985;28;20281;-52
2021/04/24 07:45:26;;;;;;;10.57;5.60;;;20.00;23.30;;;;;;5032233;28;20542;-53
2021/04/24 07:47:52;;;;;;;9.20;5.30;;;19.20;22.10;;;;;;5031343;28;20210;-54
2021/04/24 07:50:18;;;;;;;7.63;5.60;;;18.50;22.10;;;;;;5029843;28;20723;-51
2021/04/24 07:52:44;;;;;;;10.60;5.23;;;19.20;22.10;;;;;;5029998;28;20272;-54
2021/04/24 07:55:10;;;;;;;7.43;5.37;;;19.20;22.10;;;;;;5030513;28;20661;-48
2021/04/24 07:57:36;;;;;;;6.13;5.07;;;19.50;22.00;;;;;;5029321;28;20205;-55
2021/04/24 08:00:02;;;;;;;6.60;4.40;;;19.90;22.40;;;;;;5028722;28;20213;-48
2021/04/24 08:02:28;;;;;;;5.90;3.83;;;20.30;24.00;;;;;;5028014;28;20893;-53
2021/04/24 08:04:54;;;;;;;3.97;3.40;;;21.10;24.80;;;;;;5036686;28;20209;-52
2021/04/24 08:07:20;;;;;;;4.97;3.03;;;21.70;24.70;;;;;;5035547;28;20289;-49
2021/04/24 08:09:46;;;;;;;3.50;2.70;;;22.00;25.60;;;;;;5030427;28;20234;-57
2021/04/24 08:12:12;;;;;;;3.83;2.60;;;22.20;25.40;;;;;;5029381;28;20225;-58
2021/04/24 08:14:38;;;;;;;4.00;2.43;;;22.40;25.80;;;;;;5031242;28;20207;-50
2021/04/24 08:17:04;;;;;;;3.90;1.90;;;22.40;25.90;;;;;;5030188;28;20646;-56
2021/04/24 08:19:31;;;;;;;4.23;2.10;;;22.50;26.30;;;;;;5030555;28;20212;-55
2021/04/24 08:21:57;;;;;;;4.87;2.37;;;22.60;26.40;;;;;;5035083;28;20244;-54
2021/04/24 08:24:23;;;;;;;4.37;2.50;;;22.60;26.30;;;;;;5043183;28;20206;-53
2021/04/24 08:26:49;;;;;;;4.67;3.30;;;22.60;25.80;;;;;;5028612;28;20281;-55
2021/04/24 08:29:14;;;;;;;3.03;2.20;;;22.60;25.60;;;;;;5029159;28;20630;-57
2021/04/24 08:31:43;;;;;;;7.60;3.07;;;22.50;25.30;;;;;;5020741;28;20222;-55
2021/04/24 08:34:09;;;;;;;5.50;2.67;;;22.50;25.00;;;;;;5012606;28;20213;-55
2021/04/24 08:36:34;;;;;;;3.90;3.20;;;22.50;24.90;;;;;;5024499;28;20211;-57
2021/04/24 08:39:00;;;;;;;6.00;3.10;;;22.50;24.80;;;;;;5035954;28;20653;-53
2021/04/24 08:41:26;;;;;;;5.20;3.10;;;22.50;24.40;;;;;;5027804;28;20307;-56
2021/04/24 08:43:56;;;;;;;3.80;2.80;;;22.60;23.90;;;;;;5029188;28;20704;-55
2021/04/24 08:46:22;;;;;;;5.73;3.70;;;22.50;23.80;;;;;;5030815;28;20201;-53
2021/04/24 08:48:48;;;;;;;4.13;3.50;;;22.50;23.40;;;;;;5030244;28;20210;-55
2021/04/24 08:51:14;;;;;;;4.63;3.40;;;22.50;23.00;;;;;;5030042;28;20286;-52
2021/04/24 08:53:40;;;;;;;8.03;3.13;;;22.50;22.90;;;;;;5027941;28;20237;-57
2021/04/24 08:56:06;;;;;;;5.97;3.20;;;22.50;22.70;;;;;;5027965;28;20205;-53
2021/04/24 08:58:32;;;;;;;6.17;3.23;;;22.60;22.50;;;;;;5028151;28;20225;-54
2021/04/24 09:00:58;;;;;;;3.83;2.97;;;22.60;21.90;;;;;;5029497;28;20320;-49
2021/04/24 09:03:24;;;;;;;6.20;3.30;;;22.60;22.30;;;;;;5036404;28;20649;-57
2021/04/24 09:05:50;;;;;;;6.47;3.23;;;22.60;21.70;;;;;;5026992;28;20214;-55
2021/04/24 09:08:16;;;;;;;4.30;2.93;;;22.60;20.90;;;;;;5033582;28;20211;-48
2021/04/24 09:10:42;;;;;;;4.10;2.70;;;22.60;22.00;;;;;;5031649;28;20225;-50
2021/04/24 09:13:08;;;;;;;4.20;2.83;;;22.60;21.60;;;;;;5033051;28;20277;-52
2021/04/24 09:15:34;;;;;;;4.83;3.00;;;22.60;21.80;;;;;;5030142;28;20560;-52
2021/04/24 09:18:00;;;;;;;4.60;3.10;;;22.60;21.60;;;;;;5036061;28;20193;-55
2021/04/24 09:20:26;;;;;;;4.63;2.80;;;22.60;21.10;;;;;;5049934;28;20205;-51
2021/04/24 09:22:52;;;;;;;5.30;3.27;;;22.60;21.10;;;;;;5038997;28;20205;-46
2021/04/24 09:25:18;;;;;;;5.37;3.57;;;22.60;20.90;;;;;;5046233;28;21474;-52
2021/04/24 09:27:44;;;;;;;4.37;3.67;;;22.60;21.00;;;;;;5031768;28;20212;-50
2021/04/24 09:30:10;;;;;;;4.73;3.00;;;22.60;20.50;;;;;;5030467;28;20235;-57
2021/04/24 09:32:36;;;;;;;5.10;3.27;;;22.60;20.50;;;;;;5029940;28;20264;-54
2021/04/24 09:35:03;;;;;;;3.13;2.77;;;22.60;20.30;;;;;;5031372;28;20202;-56
2021/04/24 09:37:29;;;;;;;5.60;3.30;;;22.60;20.50;;;;;;5042289;28;20259;-47
2021/04/24 09:39:55;;;;;;;3.97;3.27;;;22.60;20.30;;;;;;5029687;28;20248;-51
2021/04/24 09:42:21;;;;;;;3.30;2.53;;;22.70;21.10;;;;;;5034035;28;20256;-52
2021/04/24 09:44:47;;;;;;;2.60;1.90;;;22.70;21.80;;;;;;5035683;28;20538;-52
2021/04/24 09:47:14;;;;;;;2.72;2.53;;;22.80;22.10;;;;;;5047324;28;20278;-49
2021/04/24 09:49:40;;;;;;;4.10;2.30;;;22.80;22.30;;;;;;5028658;28;20199;-56
2021/04/24 09:52:06;;;;;;;2.60;1.80;;;22.80;22.60;;;;;;5029418;28;20233;-55
2021/04/24 09:54:31;;;;;;;2.67;1.90;;;22.80;22.70;;;;;;5035199;28;20222;-50
2021/04/24 09:56:58;;;;;;;2.43;2.00;;;22.80;22.80;;;;;;5028390;28;20324;-53
2021/04/24 09:59:23;;;;;;;3.50;2.30;;;22.80;23.00;;;;;;5036615;28;20259;-52
2021/04/24 10:01:49;;;;;;;3.35;2.17;;;22.80;23.20;;;;;;5032850;28;20786;-51
2021/04/24 10:04:16;;;;;;;4.13;2.40;;;22.80;23.20;;;;;;5035646;28;20210;-53
2021/04/24 10:06:42;;;;;;;5.15;2.80;;;22.80;22.80;;;;;;5029611;28;20202;-49
2021/04/24 10:09:08;;;;;;;4.30;3.00;;;22.70;22.00;;;;;;5034723;28;20279;-55
2021/04/24 10:11:34;;;;;;;4.88;3.30;;;22.70;21.80;;;;;;5031702;28;20223;-51
2021/04/24 10:14:00;;;;;;;5.60;3.77;;;22.70;21.30;;;;;;5031545;28;20190;-55
2021/04/24 10:16:26;;;;;;;4.80;3.60;;;22.70;20.80;;;;;;5028271;28;20540;-54
2021/04/24 10:18:52;;;;;;;4.33;3.37;;;22.70;20.60;;;;;;5024152;28;20211;-51
2021/04/24 10:21:18;;;;;;;4.27;2.90;;;22.60;20.50;;;;;;5027337;28;20244;-52
2021/04/24 10:23:43;;;;;;;7.83;2.83;;;22.70;21.40;;;;;;5029857;28;20222;-50
2021/04/24 10:26:09;;;;;;;3.77;2.70;;;22.70;21.00;;;;;;5029620;28;20240;-56
2021/04/24 10:28:35;;;;;;;5.10;2.70;;;22.80;21.20;;;;;;5024379;28;20224;-56
2021/04/24 10:31:01;;;;;;;5.53;2.87;;;22.80;21.50;;;;;;5032356;28;20305;-55
2021/04/24 10:33:28;;;;;;;4.80;2.80;;;22.70;20.90;;;;;;5036719;28;20722;-57
2021/04/24 10:35:54;;;;;;;5.63;3.40;;;22.70;20.60;;;;;;5033041;28;20210;-57
2021/04/24 10:38:20;;;;;;;4.83;3.57;;;22.70;20.00;;;;;;5032438;28;20198;-52
2021/04/24 10:40:46;;;;;;;5.27;3.20;;;22.70;20.00;;;;;;5036975;28;20222;-53
2021/04/24 10:43:12;;;;;;;4.07;3.30;;;22.70;20.50;;;;;;5032719;28;20202;-56
2021/04/24 10:45:38;;;;;;;4.70;3.05;;;22.70;20.00;;;;;;5033295;28;20654;-57
2021/04/24 10:48:04;;;;;;;5.10;3.45;;;22.70;20.00;;;;;;5028946;28;20301;-54
2021/04/24 10:50:30;;;;;;;3.70;3.15;;;22.60;19.90;;;;;;5025645;28;20222;-54
2021/04/24 10:52:56;;;;;;;3.70;2.90;;;22.60;19.60;;;;;;5059933;22;20233;-49
2021/04/24 10:55:22;;;;;;;4.27;3.00;;;22.70;20.30;;;;;;5050607;28;20201;-50
2021/04/24 10:57:48;;;;;;;3.95;3.00;;;22.70;20.20;;;;;;5049249;28;20614;-51
2021/04/24 11:00:14;;;;;;;3.50;3.03;;;22.70;20.00;;;;;;5039945;28;20218;-51
2021/04/24 11:02:40;;;;;;;5.83;3.57;;;22.70;20.20;;;;;;5026424;28;20417;-52
2021/04/24 11:05:06;;;;;;;5.47;3.00;;;22.70;20.00;;;;;;5029557;28;20284;-46
2021/04/24 11:07:32;;;;;;;3.60;2.70;;;22.70;20.20;;;;;;5030323;28;20210;-53
2021/04/24 11:09:58;;;;;;;6.13;4.00;;;22.70;20.50;;;;;;5031327;28;20293;-49
2021/04/24 11:12:24;;;;;;;7.00;3.90;;;22.30;19.20;;;;;;5031427;28;20213;-50
2021/04/24 11:14:50;;;;;;;3.97;3.47;;;22.20;19.70;;;;;;5030109;28;20225;-47
2021/04/24 11:17:16;;;;;;;4.60;3.20;;;22.40;19.70;;;;;;5030702;28;20206;-50
2021/04/24 11:19:44;;;;;;;4.23;3.23;;;22.50;20.50;;;;;;5030098;28;20588;-52
2021/04/24 11:22:10;;;;;;;4.90;3.17;;;22.50;20.00;;;;;;5031555;28;20291;-49
2021/04/24 11:24:35;;;;;;;4.20;3.20;;;22.60;19.60;;;;;;5030138;28;20198;-50
2021/04/24 11:27:01;;;;;;;3.50;2.80;;;22.60;19.70;;;;;;5031029;28;20197;-52
2021/04/24 11:29:27;;;;;;;4.07;3.40;;;22.60;20.00;;;;;;5031411;28;20666;-50
2021/04/24 11:31:53;;;;;;;3.73;3.00;;;22.60;19.90;;;;;;5031056;28;20271;-53
2021/04/24 11:34:19;;;;;;;4.73;3.40;;;22.60;19.90;;;;;;5030745;28;20372;-51
2021/04/24 11:36:45;;;;;;;3.93;3.53;;;22.70;20.70;;;;;;5030931;28;20279;-50
2021/04/24 11:39:11;;;;;;;6.23;4.40;;;22.70;20.70;;;;;;5030277;28;20308;-50
2021/04/24 11:41:37;;;;;;;7.43;5.37;;;22.70;20.40;;;;;;5030685;28;20598;-49
2021/04/24 11:44:03;;;;;;;6.40;5.27;;;22.70;20.00;;;;;;5030939;28;20261;-48
2021/04/24 11:46:29;;;;;;;6.87;5.00;;;22.70;20.00;;;;;;5026662;28;20202;-50
2021/04/24 11:48:54;;;;;;;5.43;4.70;;;22.70;20.00;;;;;;5029438;28;20605;-49
2021/04/24 11:51:20;;;;;;;6.63;4.77;;;22.60;19.90;;;;;;5028761;28;20297;-51
2021/04/24 11:53:46;;;;;;;5.73;4.10;;;22.60;19.30;;;;;;5029193;28;20557;-52
2021/04/24 11:56:12;;;;;;;5.77;4.17;;;22.60;18.90;;;;;;5029411;28;20256;-47
2021/04/24 11:58:38;;;;;;;5.90;3.97;;;22.60;19.00;;;;;;5033733;28;20278;-52
2021/04/24 12:01:04;;;;;;;5.60;3.87;;;22.60;19.60;;;;;;5029916;28;20709;-52
2021/04/24 12:03:30;;;;;;;7.10;3.20;;;22.60;19.10;;;;;;5030020;28;20203;-52
2021/04/24 12:05:56;;;;;;;5.63;3.80;;;22.60;19.30;;;;;;5031874;28;20650;-49
2021/04/24 12:08:22;;;;;;;5.23;3.30;;;22.70;19.20;;;;;;5029639;28;20248;-51
2021/04/24 12:10:49;;;;;;;6.17;3.40;;;22.60;19.50;;;;;;5030327;28;20232;-49
2021/04/24 12:13:15;;;;;;;4.80;3.07;;;22.60;19.20;;;;;;5029655;28;20206;-48
2021/04/24 12:15:44;;;;;;;5.88;3.42;;;22.60;19.30;;;;;;5030219;28;20264;-49
2021/04/24 12:18:10;;;;;;;4.93;3.10;;;22.60;18.70;;;;;;5028481;28;20208;-50
2021/04/24 12:20:36;;;;;;;4.10;2.93;;;22.60;19.10;;;;;;5028408;28;20230;-49
2021/04/24 12:23:02;;;;;;;4.20;2.70;;;22.60;19.20;;;;;;5029868;28;20241;-51
2021/04/24 12:25:28;;;;;;;3.17;2.37;;;22.70;19.70;;;;;;5029411;28;20260;-49
2021/04/24 12:27:54;;;;;;;2.97;2.57;;;22.70;20.00;;;;;;5030294;28;20213;-49
2021/04/24 12:30:20;;;;;;;3.45;2.10;;;22.70;20.00;;;;;;5029508;28;20654;-52
2021/04/24 12:32:46;;;;;;;3.63;2.60;;;22.70;20.20;;;;;;5030277;28;20208;-54
2021/04/24 12:35:12;;;;;;;2.67;1.80;;;22.80;20.70;;;;;;5028962;28;20206;-54
2021/04/24 12:37:39;;;;;;;3.40;2.20;;;22.80;20.80;;;;;;5022944;28;20206;-48
2021/04/24 12:40:05;;;;;;;3.33;1.93;;;22.80;21.10;;;;;;5028647;28;20225;-52